Time;durP1;ratioP1;P1;durP2;ratioP2;P2;SDS_P1;SDS_P2;PMS_P1;PMS_P2;Temp;Humidity;BMP_temperature;BMP_pressure;BME280_temperature;BME280_humidity;BME280_pressure;Samples;Min_cycle;Max_cycle;Signal;HPM_P1;HPM_P2
2022/09/17 00:02:09;;;;;;;5.90;1.80;;;;;;;11.22;100.00;99991.28;6021800;28;20045;-63
2022/09/17 00:05:05;;;;;;;3.40;1.57;;;;;;;11.11;100.00;99974.91;6022594;28;20429;-62
2022/09/17 00:08:01;;;;;;;3.75;1.55;;;;;;;11.10;100.00;99975.88;6022555;28;20802;-63
2022/09/17 00:10:56;;;;;;;5.93;2.03;;;;;;;11.06;100.00;99971.94;6021261;28;20042;-63
2022/09/17 00:13:52;;;;;;;5.40;1.97;;;;;;;11.06;100.00;99977.22;6020975;28;20027;-64
2022/09/17 00:16:48;;;;;;;8.85;1.88;;;;;;;11.03;100.00;99972.25;6021849;28;20045;-65
2022/09/17 00:19:43;;;;;;;4.85;1.67;;;;;;;11.04;100.00;99981.84;6022296;28;20258;-64
2022/09/17 00:22:39;;;;;;;3.73;1.30;;;;;;;11.10;100.00;99995.28;6021488;28;20064;-64
2022/09/17 00:25:40;;;;;;;4.13;1.50;;;;;;;11.05;100.00;99973.75;6021902;28;20553;-65
2022/09/17 00:28:36;;;;;;;5.32;1.48;;;;;;;11.12;100.00;100000.41;6022541;28;20045;-65
2022/09/17 00:31:32;;;;;;;2.77;1.10;;;;;;;11.12;100.00;100003.06;6021380;28;20038;-64
2022/09/17 00:34:27;;;;;;;4.97;1.13;;;;;;;10.91;100.00;99960.31;6022279;28;20026;-64
2022/09/17 00:37:23;;;;;;;4.40;1.37;;;;;;;11.08;100.00;99993.81;6021581;28;20044;-65
2022/09/17 00:40:19;;;;;;;6.43;1.20;;;;;;;11.11;100.00;99996.97;6021535;28;20559;-63
2022/09/17 00:43:33;;;;;;;5.68;1.10;;;;;;;11.07;100.00;99986.81;6022111;28;20034;-64
2022/09/17 00:46:37;;;;;;;2.05;1.25;;;;;;;11.15;100.00;100003.56;6021269;28;20038;-62
2022/09/17 00:49:33;;;;;;;2.85;1.05;;;;;;;11.10;100.00;99989.97;6020628;28;20474;-63
2022/09/17 00:52:35;;;;;;;4.78;1.13;;;;;;;11.16;100.00;99999.09;6020105;28;20122;-65
2022/09/17 00:55:37;;;;;;;5.07;1.10;;;;;;;11.16;100.00;99999.09;6020961;28;20038;-64
2022/09/17 00:58:34;;;;;;;5.45;1.20;;;;;;;11.19;100.00;100009.38;6035653;28;20034;-64
2022/09/17 01:01:30;;;;;;;11.68;1.40;;;;;;;11.13;100.00;100002.91;6021521;28;20034;-64
2022/09/17 01:04:27;;;;;;;6.32;1.30;;;;;;;11.18;100.00;100010.38;6021455;28;20038;-64
2022/09/17 01:07:47;;;;;;;6.10;1.50;;;;;;;11.17;100.00;99998.13;6023438;28;20081;-64
2022/09/17 01:11:01;;;;;;;;;;;;;;;11.24;100.00;100013.19;6024385;28;20043;-63
2022/09/17 01:14:18;;;;;;;9.93;2.00;;;;;;;11.17;100.00;100004.22;6025793;28;19976;-65
2022/09/17 01:17:34;;;;;;;8.15;1.83;;;;;;;11.24;100.00;100017.66;6025036;28;20474;-65
2022/09/17 01:20:54;;;;;;;7.35;1.85;;;;;;;11.26;100.00;100018.31;6023880;28;20035;-65
2022/09/17 01:24:33;;;;;;;9.25;2.40;;;;;;;11.20;100.00;100017.16;6044531;28;20135;-65
2022/09/17 01:28:03;;;;;;;9.90;2.10;;;;;;;11.23;100.00;100027.44;6024344;28;20763;-65
2022/09/17 01:31:06;;;;;;;6.45;1.80;;;;;;;11.11;100.00;100017.34;6024874;28;20030;-64
2022/09/17 01:34:39;;;;;;;6.25;1.67;;;;;;;11.19;100.00;100035.94;6024105;28;20516;-64
2022/09/17 01:38:00;;;;;;;9.60;2.03;;;;;;;11.16;100.00;100036.25;6025011;28;20514;-64
2022/09/17 01:41:06;;;;;;;15.65;2.50;;;;;;;11.05;100.00;100033.94;6025393;28;20034;-64
2022/09/17 01:44:07;;;;;;;9.23;1.83;;;;;;;11.07;100.00;100034.59;6024729;28;20030;-64
2022/09/17 01:47:38;;;;;;;9.45;1.88;;;;;;;11.09;100.00;100045.84;6024395;28;20518;-65
2022/09/17 01:50:42;;;;;;;7.65;2.03;;;;;;;10.93;100.00;100027.28;6023730;28;20049;-66
2022/09/17 01:53:46;;;;;;;13.63;2.65;;;;;;;10.93;100.00;100040.53;6044071;28;20034;-64
2022/09/17 01:56:57;;;;;;;12.35;2.55;;;;;;;10.87;100.00;100038.56;6023442;28;20498;-66
2022/09/17 02:00:03;;;;;;;9.38;2.58;;;;;;;10.89;100.00;100042.72;6011492;28;20034;-66
2022/09/17 02:03:02;;;;;;;8.00;2.00;;;;;;;10.86;100.00;100048.34;6023463;28;20042;-66
2022/09/17 02:06:02;;;;;;;15.07;2.55;;;;;;;10.89;100.00;100050.69;6023749;28;20108;-65
2022/09/17 02:09:25;;;;;;;7.38;2.08;;;;;;;10.93;100.00;100056.47;6025006;28;20084;-65
2022/09/17 02:12:34;;;;;;;11.55;2.67;;;;;;;10.91;100.00;100047.84;6022243;28;20601;-65
2022/09/17 02:15:38;;;;;;;14.48;2.20;;;;;;;10.92;100.00;100049.50;6023172;28;20050;-66
2022/09/17 02:18:40;;;;;;;10.50;2.47;;;;;;;10.86;100.00;100044.88;6023610;28;20065;-67
2022/09/17 02:21:52;;;;;;;12.55;1.95;;;;;;;10.91;100.00;100055.81;6023681;28;20469;-67
2022/09/17 02:25:12;;;;;;;13.10;1.92;;;;;;;10.89;100.00;100055.16;6027901;28;20044;-67
2022/09/17 02:28:12;;;;;;;8.95;1.70;;;;;;;10.87;100.00;100049.19;6038093;28;20040;-67
2022/09/17 02:31:07;;;;;;;8.70;1.80;;;;;;;10.83;100.00;100045.19;6027334;28;20462;-67
2022/09/17 02:34:04;;;;;;;12.68;2.33;;;;;;;10.87;100.00;100059.78;6022901;28;20034;-67
2022/09/17 02:37:00;;;;;;;10.25;1.90;;;;;;;10.85;100.00;100053.81;6044227;28;20124;-65
2022/09/17 02:39:55;;;;;;;6.93;1.95;;;;;;;10.81;100.00;100068.41;6041096;28;20087;-67
2022/09/17 02:43:13;;;;;;;14.57;2.30;;;;;;;10.79;100.00;100067.75;6023085;28;20073;-67
2022/09/17 02:46:17;;;;;;;14.15;2.72;;;;;;;10.79;100.00;100081.00;6023919;28;20026;-66
2022/09/17 02:49:14;;;;;;;11.20;2.33;;;;;;;10.73;100.00;100079.81;6023650;28;20112;-66
2022/09/17 02:52:34;;;;;;;11.38;1.90;;;;;;;10.78;100.00;100082.81;6038320;28;20030;-67
2022/09/17 02:55:31;;;;;;;19.40;2.72;;;;;;;10.77;100.00;100079.31;6022663;28;20065;-66
2022/09/17 02:58:31;;;;;;;7.85;1.90;;;;;;;10.64;100.00;100060.41;6034585;28;20041;-67
2022/09/17 03:01:42;;;;;;;8.65;2.15;;;;;;;10.57;100.00;100071.84;6045392;28;20037;-66
2022/09/17 03:04:38;;;;;;;13.30;2.50;;;;;;;10.54;100.00;100080.09;6045628;28;20091;-68
2022/09/17 03:07:33;;;;;;;7.75;1.88;;;;;;;10.47;100.00;100077.25;6023438;28;20048;-66
2022/09/17 03:10:32;;;;;;;14.93;2.60;;;;;;;10.47;100.00;100077.25;6022949;28;20090;-68
2022/09/17 03:13:28;;;;;;;8.93;1.98;;;;;;;10.47;100.00;100077.25;6023498;28;20719;-68
2022/09/17 03:16:24;;;;;;;11.45;1.63;;;;;;;10.53;100.00;100078.44;6023115;28;20046;-66
2022/09/17 03:19:19;;;;;;;8.40;2.00;;;;;;;10.48;100.00;100073.63;6023640;28;20045;-66
2022/09/17 03:22:14;;;;;;;12.17;2.10;;;;;;;10.50;100.00;100076.94;6022651;28;20139;-67
2022/09/17 03:25:10;;;;;;;8.43;2.13;;;;;;;10.50;100.00;100082.25;6023118;28;20038;-66
2022/09/17 03:28:05;;;;;;;12.82;1.92;;;;;;;10.53;100.00;100081.09;6023050;28;20118;-66
2022/09/17 03:31:00;;;;;;;10.90;1.60;;;;;;;10.41;100.00;100069.94;6021916;28;20034;-67
2022/09/17 03:33:56;;;;;;;9.13;1.67;;;;;;;10.39;100.00;100079.88;6023033;28;20041;-66
2022/09/17 03:36:51;;;;;;;13.60;2.10;;;;;;;10.40;100.00;100081.56;6022638;28;20045;-65
2022/09/17 03:39:46;;;;;;;6.57;2.17;;;;;;;10.28;100.00;100082.81;6023004;28;20386;-67
2022/09/17 03:42:42;;;;;;;12.67;2.20;;;;;;;10.21;100.00;100080.97;6022461;28;20049;-66
2022/09/17 03:45:37;;;;;;;9.93;1.98;;;;;;;10.22;100.00;100083.44;6022762;28;20054;-66
2022/09/17 03:48:35;;;;;;;15.83;2.00;;;;;;;10.23;100.00;100085.13;6022741;28;20370;-65
2022/09/17 03:51:31;;;;;;;9.88;1.92;;;;;;;10.20;100.00;100090.72;6021781;28;20269;-67
2022/09/17 03:54:26;;;;;;;6.15;2.15;;;;;;;10.16;100.00;100084.91;6022890;28;20041;-68
2022/09/17 03:57:22;;;;;;;15.20;2.50;;;;;;;10.17;100.00;100101.66;6025527;28;20124;-67
2022/09/17 04:00:17;;;;;;;10.32;1.80;;;;;;;10.24;100.00;100105.34;6029906;28;20297;-67
2022/09/17 04:03:12;;;;;;;8.50;1.50;;;;;;;10.17;100.00;100096.34;6024436;28;20034;-65
2022/09/17 04:06:07;;;;;;;12.90;1.37;;;;;;;10.21;99.88;100110.97;6022577;28;20613;-68
2022/09/17 04:09:04;;;;;;;8.30;1.80;;;;;;;10.19;99.94;100101.50;6022725;28;20174;-67
2022/09/17 04:11:59;;;;;;;11.63;2.53;;;;;;;10.19;99.41;100105.00;6021730;28;20143;-67
2022/09/17 04:14:54;;;;;;;8.20;1.83;;;;;;;10.31;99.04;100109.00;6022563;28;20034;-67
2022/09/17 04:17:50;;;;;;;13.23;1.80;;;;;;;10.31;98.42;100109.00;6030856;28;20038;-66
2022/09/17 04:20:45;;;;;;;8.47;1.70;;;;;;;10.32;98.39;100110.69;6021530;28;20041;-68
2022/09/17 04:23:40;;;;;;;17.10;2.00;;;;;;;10.32;98.79;100128.38;6022440;28;20042;-68
2022/09/17 04:26:36;;;;;;;17.30;1.98;;;;;;;10.30;98.29;100117.94;6022158;28;20073;-66
2022/09/17 04:29:31;;;;;;;17.63;1.70;;;;;;;10.32;98.33;100126.56;6024089;28;20043;-66
2022/09/17 04:32:26;;;;;;;8.50;1.53;;;;;;;10.27;97.77;100126.22;6021539;28;20053;-67
2022/09/17 04:35:21;;;;;;;8.63;1.53;;;;;;;10.23;97.86;100126.69;6021938;28;20077;-68
2022/09/17 04:38:19;;;;;;;12.70;1.57;;;;;;;10.21;98.00;100129.50;6022304;28;20039;-69
2022/09/17 04:41:14;;;;;;;10.48;1.85;;;;;;;10.16;98.32;100137.09;6021404;28;20038;-67
2022/09/17 04:44:10;;;;;;;9.90;1.67;;;;;;;10.12;98.43;100127.75;6027382;28;20068;-68
2022/09/17 04:47:05;;;;;;;15.18;1.77;;;;;;;10.11;98.21;100126.09;6026604;28;20046;-67
2022/09/17 04:50:00;;;;;;;13.47;1.70;;;;;;;10.09;98.43;100128.06;6025743;28;20080;-66
2022/09/17 04:52:56;;;;;;;16.23;2.33;;;;;;;10.11;98.14;100128.72;6026334;28;20034;-66
2022/09/17 04:55:51;;;;;;;13.65;2.22;;;;;;;10.07;97.88;100132.69;6026317;28;20068;-66
2022/09/17 04:58:46;;;;;;;5.83;1.90;;;;;;;10.16;97.92;100131.81;6029032;28;20426;-68
2022/09/17 05:01:42;;;;;;;9.97;1.73;;;;;;;10.17;97.56;100133.44;6049552;28;20268;-66
2022/09/17 05:04:37;;;;;;;12.07;2.88;;;;;;;10.21;97.06;100126.84;6032572;28;20289;-65
2022/09/17 05:07:33;;;;;;;14.07;2.20;;;;;;;10.22;97.22;100136.44;6025738;28;20063;-66
2022/09/17 05:10:28;;;;;;;9.53;2.20;;;;;;;10.18;97.87;100129.81;6029474;28;20116;-67
2022/09/17 05:13:23;;;;;;;11.97;2.00;;;;;;;10.13;98.52;100132.09;6046453;28;20030;-68
2022/09/17 05:16:19;;;;;;;8.83;1.97;;;;;;;10.13;98.75;100142.72;6025304;28;20290;-68
2022/09/17 05:19:15;;;;;;;9.50;2.10;;;;;;;10.17;98.85;100151.97;6025601;28;20414;-67
2022/09/17 05:22:10;;;;;;;11.38;2.25;;;;;;;10.18;98.44;100155.47;6024890;28;20045;-68
2022/09/17 05:25:05;;;;;;;8.97;2.73;;;;;;;10.19;98.39;100157.97;6025683;28;20046;-67
2022/09/17 05:28:01;;;;;;;11.93;1.98;;;;;;;10.20;98.04;100154.31;6025643;28;20548;-68
2022/09/17 05:30:59;;;;;;;8.23;1.95;;;;;;;10.23;98.06;100163.78;6025275;28;20026;-66
2022/09/17 05:33:56;;;;;;;6.68;1.73;;;;;;;10.16;98.44;100163.59;6025644;28;20072;-67
2022/09/17 05:36:52;;;;;;;16.88;2.63;;;;;;;10.12;98.69;100156.91;6025055;28;20113;-68
2022/09/17 05:39:47;;;;;;;10.60;1.77;;;;;;;10.16;98.50;100168.88;6025441;28;20429;-65
2022/09/17 05:42:42;;;;;;;7.23;1.27;;;;;;;10.16;98.37;100163.59;6025392;28;20085;-68
2022/09/17 05:45:38;;;;;;;7.47;1.37;;;;;;;10.20;97.46;100164.09;6025420;28;20034;-67
2022/09/17 05:48:33;;;;;;;6.73;1.27;;;;;;;10.25;96.98;100175.88;6025269;28;20428;-66
2022/09/17 05:51:29;;;;;;;12.43;1.75;;;;;;;10.25;96.61;100167.94;6024035;28;20042;-68
2022/09/17 05:54:24;;;;;;;10.18;1.98;;;;;;;10.27;96.29;100163.31;6023890;28;20065;-68
2022/09/17 05:57:19;;;;;;;7.97;1.03;;;;;;;10.36;95.67;100180.91;6024998;28;20491;-66
2022/09/17 06:00:15;;;;;;;9.20;1.63;;;;;;;10.31;95.32;100180.56;6024326;28;20034;-67
2022/09/17 06:03:11;;;;;;;8.00;1.52;;;;;;;10.36;95.40;100191.50;6025195;28;20097;-67
2022/09/17 06:06:07;;;;;;;8.00;1.50;;;;;;;10.39;95.56;100188.56;6024926;28;20060;-67
2022/09/17 06:09:02;;;;;;;8.70;1.42;;;;;;;10.46;94.41;100180.81;6024856;28;20064;-66
2022/09/17 06:11:58;;;;;;;6.63;1.40;;;;;;;10.49;93.72;100191.91;6024348;28;20030;-67
2022/09/17 06:14:53;;;;;;;8.00;1.17;;;;;;;10.58;93.21;100185.66;6024664;28;20038;-66
2022/09/17 06:17:48;;;;;;;11.47;1.73;;;;;;;10.61;92.50;100200.41;6024970;28;20065;-66
2022/09/17 06:20:54;;;;;;;6.87;1.10;;;;;;;10.70;91.77;100195.00;6023964;28;20043;-67
2022/09/17 06:23:50;;;;;;;5.65;1.45;;;;;;;10.75;91.47;100190.06;6024169;28;20053;-66
2022/09/17 06:26:45;;;;;;;12.32;1.58;;;;;;;10.77;91.09;100201.31;6024407;28;20462;-67
2022/09/17 06:29:40;;;;;;;10.13;1.60;;;;;;;10.77;91.21;100201.31;6024571;28;20042;-65
2022/09/17 06:32:36;;;;;;;7.57;1.40;;;;;;;10.80;90.69;100205.47;6023901;28;20038;-67
2022/09/17 06:35:31;;;;;;;9.30;2.00;;;;;;;10.75;90.23;100200.66;6024371;28;20034;-67
2022/09/17 06:38:27;;;;;;;15.57;1.93;;;;;;;10.79;90.61;100208.31;6024032;28;20031;-67
2022/09/17 06:41:22;;;;;;;8.77;1.42;;;;;;;10.82;90.29;100221.25;6023588;28;20041;-67
2022/09/17 06:44:19;;;;;;;13.65;1.48;;;;;;;10.84;89.94;100219.25;6023944;28;20077;-69
2022/09/17 06:47:14;;;;;;;8.85;1.52;;;;;;;10.88;89.83;100223.25;6023688;28;20045;-68
2022/09/17 06:50:10;;;;;;;10.10;1.48;;;;;;;10.83;89.13;100225.53;6023420;28;20038;-66
2022/09/17 06:53:05;;;;;;;14.80;1.57;;;;;;;10.79;89.06;100218.91;6022645;28;20029;-68
2022/09/17 06:56:00;;;;;;;9.13;1.63;;;;;;;10.81;88.99;100223.06;6026317;28;20029;-68
2022/09/17 06:58:56;;;;;;;17.05;2.22;;;;;;;10.86;88.26;100230.53;6024978;28;20033;-68
2022/09/17 07:01:51;;;;;;;9.23;1.63;;;;;;;10.91;87.98;100228.22;6032723;28;20092;-69
2022/09/17 07:04:47;;;;;;;9.30;1.63;;;;;;;10.92;88.08;100224.59;6023175;28;20038;-66
2022/09/17 07:07:42;;;;;;;16.10;2.08;;;;;;;11.06;87.50;100218.69;6022883;28;20474;-67
2022/09/17 07:10:37;;;;;;;10.50;1.60;;;;;;;11.03;87.06;100219.00;6022652;28;20046;-67
2022/09/17 07:13:33;;;;;;;8.77;1.27;;;;;;;11.03;86.82;100237.56;6029325;28;20061;-67
2022/09/17 07:16:31;;;;;;;6.20;1.50;;;;;;;10.88;86.88;100229.38;6026813;28;20359;-68
2022/09/17 07:19:26;;;;;;;8.90;1.60;;;;;;;10.80;87.32;100212.59;6023781;28;20038;-67
2022/09/17 07:22:24;;;;;;;6.90;1.20;;;;;;;11.12;86.93;100221.50;6022742;28;20034;-67
2022/09/17 07:25:19;;;;;;;7.13;1.10;;;;;;;11.56;85.02;100214.13;6043235;28;20034;-67
2022/09/17 07:28:14;;;;;;;15.37;1.40;;;;;;;11.70;82.54;100210.84;6046508;28;20037;-67
2022/09/17 07:31:10;;;;;;;8.23;1.67;;;;;;;11.81;81.26;100210.53;6030591;28;20038;-67
2022/09/17 07:34:05;;;;;;;9.85;1.65;;;;;;;12.13;80.19;100208.81;6024546;28;20030;-66
2022/09/17 07:37:01;;;;;;;14.77;1.93;;;;;;;12.41;78.78;100210.13;6022385;28;20097;-66
2022/09/17 07:39:56;;;;;;;16.25;1.83;;;;;;;12.45;77.09;100203.44;6023062;28;20331;-68
2022/09/17 07:42:53;;;;;;;9.37;1.00;;;;;;;12.44;76.36;100212.44;6039919;28;20569;-68
2022/09/17 07:45:48;;;;;;;11.00;1.60;;;;;;;12.69;76.50;100219.31;6026405;28;20281;-68
2022/09/17 07:48:44;;;;;;;4.13;1.10;;;;;;;12.73;76.41;100214.50;6030462;28;20057;-67
2022/09/17 07:51:40;;;;;;;9.15;1.67;;;;;;;12.97;75.50;100214.38;6021733;28;20034;-68
2022/09/17 07:54:38;;;;;;;8.47;1.37;;;;;;;13.03;74.77;100211.03;6020989;28;20038;-67
2022/09/17 07:57:33;;;;;;;12.85;1.65;;;;;;;13.11;75.01;100213.69;6021800;28;20410;-66
2022/09/17 08:00:28;;;;;;;13.07;1.67;;;;;;;13.20;74.03;100210.00;6023470;28;20096;-66
2022/09/17 08:03:24;;;;;;;7.00;1.10;;;;;;;13.23;73.65;100222.13;6022485;28;20037;-66
2022/09/17 08:06:22;;;;;;;16.60;1.60;;;;;;;13.18;72.69;100213.84;6023497;28;20273;-67
2022/09/17 08:09:18;;;;;;;7.28;1.65;;;;;;;13.35;72.88;100207.38;6030848;28;20041;-69
2022/09/17 08:12:14;;;;;;;8.15;1.25;;;;;;;13.35;71.81;100216.22;6040599;28;20058;-67
2022/09/17 08:15:09;;;;;;;13.98;1.65;;;;;;;13.34;71.33;100216.41;6022710;28;20038;-68
2022/09/17 08:18:05;;;;;;;10.80;1.42;;;;;;;13.55;71.08;100211.25;6025194;28;20045;-69
2022/09/17 08:21:03;;;;;;;9.83;1.60;;;;;;;13.41;70.49;100210.19;6027065;28;20486;-69
2022/09/17 08:23:58;;;;;;;10.77;1.50;;;;;;;13.59;70.48;100208.03;6028539;28;20034;-68
2022/09/17 08:26:53;;;;;;;10.80;1.60;;;;;;;13.88;68.93;100207.34;6027907;28;20026;-69
2022/09/17 08:29:48;;;;;;;7.90;1.67;;;;;;;14.13;67.21;100213.28;6044258;28;20531;-67
2022/09/17 08:32:44;;;;;;;10.50;1.20;;;;;;;14.15;66.89;100208.59;6050120;28;20347;-67
2022/09/17 08:35:39;;;;;;;8.77;1.13;;;;;;;14.26;66.81;100200.16;6030321;28;20084;-68
2022/09/17 08:38:36;;;;;;;10.48;1.40;;;;;;;14.13;66.90;100197.28;6026649;28;20027;-67
2022/09/17 08:41:52;;;;;;;4.60;1.10;;;;;;;14.43;65.82;100200.84;6026216;28;20034;-66
2022/09/17 08:44:47;;;;;;;10.23;1.88;;;;;;;14.35;66.19;100191.06;6025550;28;20182;-68
2022/09/17 08:47:43;;;;;;;13.88;1.75;;;;;;;14.45;65.51;100198.81;6026579;28;20042;-66
2022/09/17 08:50:40;;;;;;;8.68;1.42;;;;;;;14.43;64.64;100200.84;6024697;28;20038;-67
2022/09/17 08:53:37;;;;;;;11.73;1.80;;;;;;;14.47;64.39;100216.28;6038191;28;20037;-68
2022/09/17 08:56:33;;;;;;;11.80;1.33;;;;;;;14.50;65.18;100201.75;6027317;28;20030;-68
2022/09/17 08:59:37;;;;;;;9.95;1.70;;;;;;;14.86;63.86;100213.34;6025049;28;20023;-68
2022/09/17 09:02:49;;;;;;;10.80;1.48;;;;;;;14.61;63.52;100212.81;6024679;28;20026;-65
2022/09/17 09:05:51;;;;;;;8.15;1.58;;;;;;;14.44;62.48;100205.16;6026077;28;20363;-64
2022/09/17 09:08:50;;;;;;;13.07;1.60;;;;;;;14.37;62.36;100201.56;6040214;28;20038;-65
2022/09/17 09:11:47;;;;;;;7.53;1.83;;;;;;;14.24;62.60;100197.63;6039595;28;20057;-66
2022/09/17 09:14:56;;;;;;;11.35;1.17;;;;;;;14.28;62.95;100209.63;6048535;28;20042;-65
2022/09/17 09:17:52;;;;;;;6.60;1.17;;;;;;;14.17;64.54;100212.72;6049996;28;20037;-66
2022/09/17 09:21:10;;;;;;;11.70;1.33;;;;;;;14.54;64.68;100203.84;6044086;28;20536;-65
2022/09/17 09:24:08;;;;;;;7.40;1.25;;;;;;;15.32;60.80;100212.06;6025884;28;20454;-65
2022/09/17 09:27:15;;;;;;;6.68;1.63;;;;;;;15.36;59.69;100193.78;6046280;28;20042;-65
2022/09/17 09:30:12;;;;;;;8.13;1.65;;;;;;;14.84;58.99;100210.00;6048949;28;20030;-66
2022/09/17 09:33:14;;;;;;;11.05;1.63;;;;;;;14.49;60.88;100189.41;6047931;28;20394;-66
2022/09/17 09:36:13;;;;;;;5.97;1.45;;;;;;;14.36;60.34;100187.41;6049194;28;20137;-66
2022/09/17 09:39:14;;;;;;;12.30;1.40;;;;;;;14.10;61.07;100189.66;6048299;28;20099;-66
2022/09/17 09:42:32;;;;;;;7.53;1.40;;;;;;;13.73;62.91;100198.44;6024031;28;20038;-67
2022/09/17 09:45:41;;;;;;;10.15;1.50;;;;;;;14.12;63.36;100199.13;6012282;28;20793;-68
2022/09/17 09:48:44;;;;;;;10.02;1.60;;;;;;;14.22;62.12;100197.00;6034030;28;20034;-67
2022/09/17 09:51:57;;;;;;;10.30;1.73;;;;;;;14.41;60.94;100189.50;6024781;28;20116;-67
2022/09/17 09:54:56;;;;;;;7.07;1.27;;;;;;;14.65;60.83;100202.56;6024383;28;20048;-66
2022/09/17 09:57:58;;;;;;;6.25;1.45;;;;;;;15.34;58.93;100191.31;6020435;28;20505;-65
2022/09/17 10:00:53;;;;;;;9.77;1.30;;;;;;;15.57;58.79;100203.72;6023747;28;20077;-67
2022/09/17 10:03:54;;;;;;;5.78;1.42;;;;;;;15.05;57.04;100196.75;6025264;28;20038;-68
2022/09/17 10:07:06;;;;;;;9.48;1.20;;;;;;;15.29;57.90;100190.22;6030718;28;20162;-68
2022/09/17 10:10:11;;;;;;;10.50;1.67;;;;;;;15.50;56.17;100198.28;6025658;28;20474;-68
2022/09/17 10:13:13;;;;;;;8.32;1.05;;;;;;;15.33;55.93;100211.03;6024841;28;20033;-66
2022/09/17 10:16:20;;;;;;;6.03;1.00;;;;;;;15.41;55.13;100200.22;6035254;28;20034;-67
2022/09/17 10:19:24;;;;;;;6.63;1.23;;;;;;;15.13;55.96;100199.31;6021017;28;20026;-66
2022/09/17 10:22:24;;;;;;;8.57;1.08;;;;;;;14.74;57.38;100204.13;6022560;28;20106;-67
2022/09/17 10:25:32;;;;;;;8.23;1.48;;;;;;;14.60;58.41;100196.97;6021613;28;20034;-66
2022/09/17 10:28:36;;;;;;;7.95;1.20;;;;;;;14.46;59.47;100197.81;6021619;28;20101;-68
2022/09/17 10:31:51;;;;;;;8.13;1.52;;;;;;;14.86;58.96;100208.00;6014779;28;20030;-68
2022/09/17 10:35:14;;;;;;;7.03;1.27;;;;;;;15.10;57.30;100199.66;6033206;28;20512;-66
2022/09/17 10:38:39;;;;;;;4.53;0.93;;;;;;;15.79;56.55;100190.13;6023971;28;20030;-67
2022/09/17 10:41:34;;;;;;;8.45;0.98;;;;;;;15.98;53.66;100188.66;6023066;28;20510;-67
2022/09/17 10:44:33;;;;;;;6.53;1.60;;;;;;;16.32;54.52;100196.72;6024385;28;20034;-67
2022/09/17 10:47:38;;;;;;;8.00;1.55;;;;;;;16.31;52.60;100189.69;6023929;28;20026;-67
2022/09/17 10:50:34;;;;;;;9.35;1.10;;;;;;;16.18;52.41;100178.91;6021889;28;20041;-65
2022/09/17 10:53:29;;;;;;;7.45;1.40;;;;;;;16.06;50.88;100183.97;6024448;28;20034;-67
2022/09/17 10:56:30;;;;;;;8.90;1.50;;;;;;;16.14;51.80;100172.31;6023710;28;20124;-67
2022/09/17 10:59:36;;;;;;;9.02;1.40;;;;;;;16.05;50.30;100171.63;6022806;28;20365;-66
2022/09/17 11:02:57;;;;;;;5.97;1.10;;;;;;;16.43;51.00;100174.75;6023128;28;20046;-67
2022/09/17 11:06:06;;;;;;;8.60;1.40;;;;;;;16.26;48.02;100170.72;6023556;28;20026;-68
2022/09/17 11:09:27;;;;;;;8.55;1.20;;;;;;;16.17;48.82;100174.56;6023397;28;20058;-65
2022/09/17 11:13:03;;;;;;;6.82;1.17;;;;;;;15.60;50.24;100173.94;6023026;28;20038;-68
2022/09/17 11:16:26;;;;;;;6.22;1.38;;;;;;;16.17;49.76;100163.06;6022230;28;20092;-66
2022/09/17 11:19:35;;;;;;;6.45;1.23;;;;;;;16.63;48.41;100173.03;6022282;28;20113;-67
2022/09/17 11:22:51;;;;;;;7.18;1.67;;;;;;;16.19;48.08;100159.19;6022435;28;20042;-67
2022/09/17 11:26:22;;;;;;;10.73;1.58;;;;;;;15.73;49.61;100174.88;6023065;28;20034;-67
2022/09/17 11:29:43;;;;;;;7.40;1.20;;;;;;;15.32;49.16;100187.19;6023328;28;20044;-66
2022/09/17 11:32:55;;;;;;;6.88;1.33;;;;;;;15.19;49.81;100177.16;6035011;28;20026;-67
2022/09/17 11:36:13;;;;;;;7.50;1.17;;;;;;;15.61;47.89;100165.69;6045199;28;20046;-66
2022/09/17 11:39:40;;;;;;;8.75;1.08;;;;;;;15.95;48.23;100167.66;6033557;28;20381;-66
2022/09/17 11:42:44;;;;;;;6.22;0.95;;;;;;;15.70;48.33;100153.88;6004927;28;20077;-66
2022/09/17 11:45:49;;;;;;;8.18;1.20;;;;;;;15.22;50.43;100202.69;6035508;28;20087;-68
2022/09/17 11:48:48;;;;;;;6.47;0.88;;;;;;;14.07;61.67;100224.66;6043323;28;20026;-67
2022/09/17 11:51:47;;;;;;;4.22;0.82;;;;;;;13.23;69.96;100222.94;6036637;28;20479;-67
2022/09/17 11:54:53;;;;;;;3.72;0.90;;;;;;;12.05;80.12;100219.47;6022333;28;20369;-67
2022/09/17 11:57:51;;;;;;;4.35;0.90;;;;;;;11.41;85.83;100225.56;6022663;28;20066;-65
2022/09/17 12:00:53;;;;;;;4.32;0.73;;;;;;;11.18;89.11;100230.63;6020736;28;20033;-65
2022/09/17 12:03:53;;;;;;;8.27;1.02;;;;;;;10.93;90.51;100229.72;6022686;28;20085;-66
2022/09/17 12:06:56;;;;;;;2.78;0.63;;;;;;;10.81;90.39;100227.53;6021635;28;20031;-65
2022/09/17 12:09:59;;;;;;;6.97;1.20;;;;;;;10.99;91.52;100217.66;6034132;28;20056;-65
2022/09/17 12:13:10;;;;;;;4.20;0.82;;;;;;;10.98;89.70;100230.06;6029918;28;20038;-65
2022/09/17 12:16:20;;;;;;;5.15;1.02;;;;;;;11.13;87.81;100238.25;6021459;28;20053;-66
2022/09/17 12:19:27;;;;;;;4.10;1.08;;;;;;;11.39;88.03;100251.44;6021132;28;20203;-67
2022/09/17 12:22:24;;;;;;;2.88;0.80;;;;;;;11.41;87.85;100225.56;6022206;28;20030;-66
2022/09/17 12:25:21;;;;;;;6.50;0.88;;;;;;;11.24;87.31;100241.44;6004785;28;20066;-67
2022/09/17 12:28:20;;;;;;;5.63;1.02;;;;;;;11.09;88.17;100239.56;6020832;28;20034;-66
2022/09/17 12:31:47;;;;;;;7.53;0.88;;;;;;;10.83;89.73;100246.75;6020916;28;20047;-66
2022/09/17 12:34:57;;;;;;;3.40;1.10;;;;;;;10.82;91.58;100245.13;6037344;28;20113;-65
2022/09/17 12:38:02;;;;;;;2.33;0.75;;;;;;;10.65;93.12;100231.75;6027117;28;20026;-66
2022/09/17 12:41:34;;;;;;;5.55;1.23;;;;;;;10.45;94.16;100234.81;6034279;28;20065;-65
2022/09/17 12:44:56;;;;;;;5.47;0.80;;;;;;;10.36;96.15;100233.91;6043405;28;20038;-65
2022/09/17 12:48:19;;;;;;;6.90;0.98;;;;;;;10.27;97.11;100228.75;6021326;28;20034;-65
2022/09/17 12:51:24;;;;;;;6.22;1.10;;;;;;;10.20;98.13;100225.88;6021284;28;20038;-64
2022/09/17 12:54:39;;;;;;;3.15;0.90;;;;;;;10.11;98.39;100218.81;6039764;28;20033;-66
2022/09/17 12:57:54;;;;;;;6.10;0.80;;;;;;;10.02;99.25;100217.94;6021976;28;20038;-65
2022/09/17 13:00:56;;;;;;;4.80;0.85;;;;;;;10.00;100.00;100219.09;6020430;28;20152;-68
2022/09/17 13:03:55;;;;;;;8.00;1.05;;;;;;;9.94;100.00;100211.75;6038784;28;20042;-65
2022/09/17 13:07:14;;;;;;;6.40;1.00;;;;;;;9.95;100.00;100216.88;6041581;28;20038;-66
2022/09/17 13:10:38;;;;;;;12.23;1.30;;;;;;;9.97;100.00;100219.38;6025588;28;20685;-66
2022/09/17 13:14:11;;;;;;;6.18;1.13;;;;;;;9.85;100.00;100213.50;6035343;28;20790;-68
2022/09/17 13:17:34;;;;;;;8.32;1.27;;;;;;;9.85;100.00;100212.66;6026176;28;20031;-68
2022/09/17 13:20:39;;;;;;;6.93;1.20;;;;;;;9.87;100.00;100223.94;6024802;28;20406;-69
2022/09/17 13:23:43;;;;;;;6.40;0.93;;;;;;;9.84;100.00;100221.59;6041214;28;20046;-68
2022/09/17 13:26:38;;;;;;;4.43;0.75;;;;;;;9.68;100.00;100226.75;6026151;28;20742;-68
2022/09/17 13:29:46;;;;;;;9.07;1.63;;;;;;;9.72;100.00;100234.25;6030734;28;20089;-67
2022/09/17 13:32:41;;;;;;;;;;;;;;;9.69;100.00;100216.03;6029813;28;20034;-67
2022/09/17 13:35:37;;;;;;;9.55;1.42;;;;;;;9.69;100.00;100213.38;6023829;28;19921;-67
2022/09/17 13:38:40;;;;;;;7.27;1.40;;;;;;;9.64;100.00;100212.16;6031163;28;20030;-67
2022/09/17 13:41:38;;;;;;;4.45;1.02;;;;;;;9.66;100.00;100213.66;6023853;28;20037;-68
2022/09/17 13:44:40;;;;;;;9.70;1.38;;;;;;;9.59;100.00;100208.13;6025193;28;20041;-68
2022/09/17 13:47:38;;;;;;;7.43;1.10;;;;;;;9.59;100.00;100196.75;6023294;28;20492;-69
2022/09/17 13:50:41;;;;;;;6.25;1.27;;;;;;;9.62;100.00;100185.81;6039558;28;20036;-68
2022/09/17 13:53:37;;;;;;;7.78;1.40;;;;;;;9.77;100.00;100178.19;6033645;28;20041;-67
2022/09/17 13:56:40;;;;;;;6.32;1.63;;;;;;;9.80;100.00;100184.00;6024783;28;20073;-68
2022/09/17 13:59:36;;;;;;;10.45;1.00;;;;;;;9.77;100.00;100183.47;6023596;28;20034;-68
2022/09/17 14:02:33;;;;;;;8.48;1.02;;;;;;;9.68;100.00;100179.09;6023452;28;20045;-68